This is the latest recevied weather packets stored in our database for station/object OK1HOL-13. If no packets are shown the sender has not sent any weather packets the latest 10 day(s).
| Time | Temp. | Humidity | Pressure | Rain* | Wind** | Luminosity | Snow |
|---|---|---|---|---|---|---|---|
| 1777704951 | 15° C | 44% | 1025.5 hPa | - | - | 234 W/m² | - |
| 1777704351 | 14.44° C | 46% | 1025.6 hPa | - | - | 174 W/m² | - |
| 1777703751 | 13.33° C | 49% | 1025.6 hPa | - | - | 167 W/m² | - |
| 1777703151 | 12.78° C | 51% | 1025.6 hPa | - | - | 172 W/m² | - |
| 1777702551 | 12.78° C | 51% | 1025.7 hPa | - | - | 142 W/m² | - |
| 1777701951 | 11.11° C | 55% | 1025.8 hPa | - | - | 136 W/m² | - |
| 1777701351 | 10.56° C | 58% | 1025.8 hPa | - | - | 24 W/m² | - |
| 1777700151 | 9.44° C | 61% | 1025.7 hPa | - | - | 21 W/m² | - |
| 1777699551 | 8.89° C | 62% | 1025.8 hPa | - | - | 19 W/m² | - |
| 1777698952 | 8.89° C | 62% | 1025.7 hPa | - | - | 18 W/m² | - |
| 1777698351 | 8.89° C | 64% | 1025.6 hPa | - | - | 16 W/m² | - |
| 1777697751 | 8.89° C | 66% | 1025.6 hPa | - | - | 15 W/m² | - |
| 1777697151 | 8.33° C | 67% | 1025.6 hPa | - | - | 13 W/m² | - |
| 1777696551 | 8.33° C | 67% | 1025.5 hPa | - | - | 12 W/m² | - |
| 1777695951 | 8.33° C | 68% | 1025.6 hPa | - | - | 10 W/m² | - |
| 1777695351 | 8.33° C | 68% | 1025.5 hPa | - | - | 8 W/m² | - |
| 1777694751 | 8.33° C | 68% | 1025.6 hPa | - | - | 6 W/m² | - |
| 1777694151 | 8.33° C | 68% | 1025.5 hPa | - | - | 4 W/m² | - |
| 1777693551 | 8.33° C | 67% | 1025.6 hPa | - | - | 2 W/m² | - |
| 1777692951 | 8.33° C | 67% | 1025.5 hPa | - | - | 1 W/m² | - |
| 1777691751 | 8.89° C | 66% | 1025.5 hPa | - | - | 0 W/m² | - |
| 1777691151 | 8.89° C | 64% | 1025.6 hPa | - | - | 0 W/m² | - |
| 1777690551 | 9.44° C | 63% | 1025.6 hPa | - | - | 0 W/m² | - |
| 1777689951 | 9.44° C | 65% | 1025.6 hPa | - | - | 0 W/m² | - |
| 1777689351 | 9.44° C | 65% | 1025.5 hPa | - | - | 0 W/m² | - |
* Rain since midnight (hover to see other rain measurements)
** Current wind speed in m/s (hover to see current wind gust speed)